Weather at Battle Mountain Airport

Public forecast

Using degrees Celsius for public forecast. Weather courtesy of forecast.io.

Closest aviation weather report (METAR) to Battle Mountain Airport

Closest report is Geraldton Airport, 339.5 nm (628.8 km) SW.

2024/05/26 21:30 (retrieved 26 minutes ago)

YGEL 262130Z AUTO 04007KT 9999 // NCD 13/12 Q1019 RF000/0000

Closest aviation forecast (TAF) to Battle Mountain Airport

Closest forecast is Geraldton Airport, 339.5 nm (628.8 km) SW.

2024/05/26 18:00 (retrieved 4 hours ago)

TAF YGEL 261650Z 2618/2712 05008KT CAVOK FM270500 23010KT CAVOK